Time;durP1;ratioP1;P1;durP2;ratioP2;P2;SDS_P1;SDS_P2;PMS_P1;PMS_P2;Temp;Humidity;BMP_temperature;BMP_pressure;BME280_temperature;BME280_humidity;BME280_pressure;Samples;Min_cycle;Max_cycle;Signal;HPM_P1;HPM_P2
2022/08/01 00:00:32;;;;;;;5.45;4.42;;;;;;;19.69;72.03;99333.05;1731414;82;20945;-72
2022/08/01 00:03:00;;;;;;;5.15;4.65;;;;;;;19.70;72.00;99335.47;1732934;82;21004;-71
2022/08/01 00:05:27;;;;;;;5.03;4.58;;;;;;;19.62;72.29;99332.70;1741620;81;21000;-69
2022/08/01 00:07:53;;;;;;;8.93;5.20;;;;;;;19.58;72.34;99330.62;1729639;82;21048;-71
2022/08/01 00:10:20;;;;;;;9.70;6.87;;;;;;;19.59;72.51;99329.50;1729405;82;21137;-70
2022/08/01 00:12:47;;;;;;;8.30;7.50;;;;;;;19.55;72.61;99324.44;1731026;82;20926;-71
2022/08/01 00:15:16;;;;;;;13.28;7.25;;;;;;;19.53;72.87;99329.95;1728145;82;21514;-72
2022/08/01 00:17:42;;;;;;;8.13;6.67;;;;;;;19.49;73.02;99324.89;1686076;82;21110;-71
2022/08/01 00:20:11;;;;;;;6.53;4.62;;;;;;;19.48;72.99;99321.92;1696661;81;21037;-73
2022/08/01 00:22:39;;;;;;;8.83;4.90;;;;;;;19.47;72.99;99323.84;1752453;81;21998;-72
2022/08/01 00:25:07;;;;;;;7.67;3.90;;;;;;;19.48;73.07;99318.64;1756034;81;21076;-73
2022/08/01 00:27:33;;;;;;;5.95;4.12;;;;;;;19.46;73.09;99317.36;1661086;81;21068;-75
2022/08/01 00:30:00;;;;;;;7.03;4.05;;;;;;;19.41;73.28;99322.37;1685604;82;21087;-72
2022/08/01 00:32:31;;;;;;;6.95;5.17;;;;;;;19.40;73.30;99319.95;1680706;85;21047;-73
2022/08/01 00:34:57;;;;;;;3.90;3.60;;;;;;;19.43;73.31;99320.67;1702298;81;21173;-74
2022/08/01 00:37:24;;;;;;;4.95;3.72;;;;;;;19.40;73.39;99318.59;1726440;81;21615;-74
2022/08/01 00:39:50;;;;;;;4.75;4.10;;;;;;;19.32;73.73;99318.02;1734155;81;21020;-74
2022/08/01 00:42:17;;;;;;;4.30;3.72;;;;;;;19.29;73.79;99318.07;1723171;81;21089;-73
2022/08/01 00:44:45;;;;;;;4.62;4.17;;;;;;;19.23;73.94;99313.91;1714306;82;21021;-73
2022/08/01 00:47:12;;;;;;;6.58;5.15;;;;;;;19.23;73.98;99313.09;1709356;82;22149;-73
2022/08/01 00:49:39;;;;;;;8.38;6.28;;;;;;;19.20;74.20;99310.42;1721942;82;21357;-74
2022/08/01 00:52:08;;;;;;;9.60;6.97;;;;;;;19.18;74.22;99305.28;1727579;82;20992;-71
2022/08/01 00:54:35;;;;;;;8.15;6.72;;;;;;;19.20;74.21;99306.34;1704279;82;21023;-71
2022/08/01 00:57:02;;;;;;;7.70;6.75;;;;;;;19.16;74.47;99303.45;1729852;82;21045;-71
2022/08/01 00:59:29;;;;;;;6.87;5.70;;;;;;;19.12;74.43;99305.20;1700391;82;21121;-73
2022/08/01 01:01:58;;;;;;;6.12;5.53;;;;;;;19.08;74.74;99294.69;1726612;82;21040;-72
2022/08/01 01:04:24;;;;;;;6.60;5.08;;;;;;;19.06;74.87;99302.36;1720512;82;21051;-70
2022/08/01 01:07:12;;;;;;;6.55;5.25;;;;;;;19.03;74.88;99300.83;1720885;83;21045;-73
2022/08/01 01:09:45;;;;;;;10.32;5.55;;;;;;;19.01;75.13;99301.70;1725128;81;20994;-71
2022/08/01 01:12:45;;;;;;;5.78;5.28;;;;;;;18.96;75.20;99304.00;1729986;82;21070;-72
2022/08/01 01:15:35;;;;;;;8.05;4.17;;;;;;;18.94;75.24;99293.99;1695310;82;20949;-72
2022/08/01 01:18:11;;;;;;;5.25;4.62;;;;;;;18.92;75.31;99295.41;1703170;83;21015;-72
2022/08/01 01:20:44;;;;;;;4.78;4.30;;;;;;;18.91;75.40;99306.86;1707985;83;21498;-71
2022/08/01 01:23:28;;;;;;;5.10;3.60;;;;;;;18.83;75.81;99309.00;1720262;83;22276;-73
2022/08/01 01:26:12;;;;;;;6.55;4.83;;;;;;;18.82;75.85;99315.56;1721390;81;21228;-72
2022/08/01 01:29:02;;;;;;;9.08;4.62;;;;;;;18.79;75.79;99309.38;1706640;81;21011;-73
2022/08/01 01:31:28;;;;;;;3.92;3.47;;;;;;;18.80;75.81;99315.05;1722684;83;21076;-70
2022/08/01 01:33:55;;;;;;;3.70;3.40;;;;;;;18.78;75.92;99313.77;1721742;83;21557;-71
2022/08/01 01:36:21;;;;;;;6.58;3.67;;;;;;;18.76;75.97;99314.63;1723551;82;21063;-72
2022/08/01 01:38:48;;;;;;;3.67;3.35;;;;;;;18.76;76.00;99320.08;1723554;82;21204;-71
2022/08/01 01:41:16;;;;;;;4.97;3.45;;;;;;;18.74;76.11;99313.61;1717603;81;21008;-70
2022/08/01 01:43:43;;;;;;;4.00;3.65;;;;;;;18.71;76.11;99315.02;1674855;85;20964;-71
2022/08/01 01:46:13;;;;;;;5.12;3.50;;;;;;;18.69;76.17;99315.91;1745738;81;21577;-71
2022/08/01 01:48:40;;;;;;;3.60;3.30;;;;;;;18.67;76.20;99318.68;1733299;81;21111;-72
2022/08/01 01:51:06;;;;;;;3.47;2.92;;;;;;;18.67;76.16;99318.13;1696167;82;21768;-70
2022/08/01 01:53:34;;;;;;;4.03;3.65;;;;;;;18.69;76.19;99320.55;1661356;82;21051;-72
2022/08/01 01:56:02;;;;;;;4.25;3.85;;;;;;;18.69;76.12;99315.91;1698200;82;21047;-72
2022/08/01 01:58:33;;;;;;;6.37;3.87;;;;;;;18.66;76.14;99323.88;1710654;82;21513;-71
2022/08/01 02:01:01;;;;;;;7.30;4.22;;;;;;;18.62;76.33;99321.53;1706021;81;21136;-71
2022/08/01 02:03:28;;;;;;;5.05;3.50;;;;;;;18.61;76.29;99318.55;1711519;83;21359;-70
2022/08/01 02:05:56;;;;;;;6.35;4.33;;;;;;;18.57;76.39;99319.74;1711714;83;21509;-70
2022/08/01 02:08:24;;;;;;;12.85;4.30;;;;;;;18.56;76.41;99320.85;1711173;83;21119;-69
2022/08/01 02:13:38;;;;;;;4.72;3.80;;;;;;;18.54;76.40;99320.94;1731400;82;21042;-69
2022/08/01 02:16:05;;;;;;;6.35;3.75;;;;;;;18.51;76.44;99322.31;1708238;82;21103;-69
2022/08/01 02:18:32;;;;;;;3.67;3.33;;;;;;;18.48;76.50;99327.03;1729471;82;20933;-70
2022/08/01 02:20:59;;;;;;;7.05;3.35;;;;;;;18.49;76.60;99319.67;1731250;82;21024;-70
2022/08/01 02:23:30;;;;;;;4.95;3.15;;;;;;;18.48;76.51;99316.69;1686423;82;21052;-70
2022/08/01 02:25:59;;;;;;;4.12;3.70;;;;;;;18.50;76.37;99313.92;1708412;82;21064;-70
2022/08/01 02:28:31;;;;;;;5.92;3.42;;;;;;;18.51;76.31;99313.36;1702774;82;21940;-69
2022/08/01 02:31:02;;;;;;;7.50;4.15;;;;;;;18.51;76.26;99313.36;1714653;81;20945;-69
2022/08/01 02:33:37;;;;;;;4.08;3.65;;;;;;;18.50;76.16;99305.75;1730436;81;21013;-70
2022/08/01 02:36:04;;;;;;;10.28;5.17;;;;;;;18.46;76.28;99308.05;1679097;84;21077;-69
2022/08/01 02:38:33;;;;;;;6.40;3.55;;;;;;;18.38;76.61;99307.41;1650351;85;21097;-69
2022/08/01 02:41:08;;;;;;;7.50;4.15;;;;;;;18.33;76.83;99299.36;1652813;84;21058;-69
2022/08/01 02:43:37;;;;;;;4.80;3.80;;;;;;;18.36;76.70;99305.57;1670842;85;21367;-70
2022/08/01 02:46:05;;;;;;;3.95;3.55;;;;;;;18.41;76.43;99304.89;1671185;85;20919;-71
2022/08/01 02:48:35;;;;;;;4.72;3.55;;;;;;;18.45;76.07;99303.16;1659865;85;21016;-71
2022/08/01 02:51:07;;;;;;;4.17;3.50;;;;;;;18.45;76.01;99308.59;1631964;87;20980;-71
2022/08/01 02:53:36;;;;;;;6.70;3.85;;;;;;;18.43;75.51;99308.64;1632861;84;21541;-72
2022/08/01 02:56:05;;;;;;;6.95;3.87;;;;;;;18.43;75.59;99306.73;1671088;85;21073;-72
2022/08/01 02:58:33;;;;;;;12.15;4.62;;;;;;;18.45;75.66;99303.16;1671009;85;21041;-71
2022/08/01 03:01:00;;;;;;;5.10;4.30;;;;;;;18.46;75.72;99308.05;1670093;85;21117;-70
2022/08/01 03:03:26;;;;;;;7.92;4.78;;;;;;;18.46;75.54;99308.85;1652896;85;21119;-70
2022/08/01 03:05:54;;;;;;;5.85;3.92;;;;;;;18.48;75.36;99310.69;1628079;86;21413;-70
2022/08/01 03:08:20;;;;;;;9.83;4.90;;;;;;;18.51;75.12;99316.09;1646231;84;21015;-69
2022/08/01 03:10:47;;;;;;;7.28;4.55;;;;;;;18.51;74.92;99309.28;1669996;84;21042;-69
2022/08/01 03:13:14;;;;;;;7.95;4.25;;;;;;;18.51;74.79;99311.41;1670914;84;20962;-70
2022/08/01 03:15:42;;;;;;;9.58;3.60;;;;;;;18.51;74.60;99310.64;1670429;84;22271;-71
2022/08/01 03:18:10;;;;;;;5.47;4.60;;;;;;;18.51;74.38;99308.70;1643805;87;21190;-70
2022/08/01 03:20:37;;;;;;;6.75;4.60;;;;;;;18.55;74.18;99316.55;1643875;86;21001;-71
2022/08/01 03:23:09;;;;;;;11.53;3.58;;;;;;;18.60;73.89;99319.14;1655679;85;21042;-71
2022/08/01 03:25:39;;;;;;;11.68;4.80;;;;;;;18.66;73.61;99319.79;1723191;83;20922;-70
2022/08/01 03:28:07;;;;;;;5.37;3.65;;;;;;;18.69;73.23;99321.91;1722549;82;21064;-72
2022/08/01 03:30:33;;;;;;;3.85;3.27;;;;;;;18.72;73.15;99322.63;1726255;81;21803;-71
2022/08/01 03:33:02;;;;;;;10.80;3.60;;;;;;;18.74;72.99;99319.05;1681587;84;21063;-71
2022/08/01 03:35:47;;;;;;;4.92;3.95;;;;;;;18.76;72.86;99322.25;1683803;81;21083;-71
2022/08/01 03:38:17;;;;;;;6.30;4.12;;;;;;;18.79;72.69;99326.29;1699996;84;21076;-69
2022/08/01 03:40:59;;;;;;;5.97;3.98;;;;;;;18.83;72.30;99319.90;1700306;84;21079;-71
2022/08/01 03:43:36;;;;;;;6.35;4.22;;;;;;;18.87;72.22;99326.88;1713018;81;21087;-71
2022/08/01 03:46:10;;;;;;;5.20;3.50;;;;;;;18.90;72.13;99324.88;1733918;82;20965;-70
2022/08/01 03:48:40;;;;;;;5.15;4.22;;;;;;;18.91;71.86;99328.66;1731065;82;21053;-71
2022/08/01 03:51:07;;;;;;;8.75;5.50;;;;;;;18.92;71.87;99323.47;1721806;81;20993;-70
2022/08/01 03:53:34;;;;;;;9.78;4.03;;;;;;;18.94;71.85;99320.44;1731142;82;21549;-72
2022/08/01 03:56:01;;;;;;;15.32;4.40;;;;;;;18.95;71.65;99315.20;1731008;82;21163;-70
2022/08/01 03:58:30;;;;;;;5.42;3.75;;;;;;;18.98;71.41;99318.13;1712910;81;21007;-71
2022/08/01 04:01:01;;;;;;;7.72;3.67;;;;;;;18.99;71.00;99319.72;1675064;85;20910;-70
2022/08/01 04:03:29;;;;;;;8.35;3.45;;;;;;;18.99;70.75;99318.35;1678557;83;20964;-71
2022/08/01 04:05:56;;;;;;;3.95;3.47;;;;;;;19.01;70.45;99316.13;1676778;83;21052;-70
2022/08/01 04:08:23;;;;;;;6.15;3.60;;;;;;;19.04;70.17;99315.48;1674682;84;22138;-70
2022/08/01 04:10:49;;;;;;;3.92;3.30;;;;;;;19.09;69.98;99320.80;1674913;84;21102;-71
2022/08/01 04:13:16;;;;;;;7.25;3.37;;;;;;;19.13;69.72;99318.27;1700415;83;21522;-73
2022/08/01 04:15:43;;;;;;;7.75;3.67;;;;;;;19.14;69.40;99314.41;1732885;81;21000;-73
2022/08/01 04:18:10;;;;;;;3.12;2.83;;;;;;;19.17;69.23;99311.06;1730127;81;21052;-73
2022/08/01 04:20:38;;;;;;;5.47;3.37;;;;;;;19.19;68.87;99316.99;1732830;81;21823;-75
2022/08/01 04:23:05;;;;;;;3.60;3.30;;;;;;;19.20;68.51;99317.80;1690830;82;21577;-73
2022/08/01 04:25:35;;;;;;;6.50;4.12;;;;;;;19.21;68.44;99316.13;1688992;84;21052;-73
2022/08/01 04:28:07;;;;;;;9.08;3.50;;;;;;;19.26;68.16;99312.45;1691481;81;20999;-72
2022/08/01 04:30:36;;;;;;;6.55;3.80;;;;;;;19.28;67.71;99305.55;1696532;81;20999;-73
2022/08/01 04:33:06;;;;;;;8.18;3.50;;;;;;;19.32;66.96;99308.47;1721170;81;21106;-72
2022/08/01 04:35:32;;;;;;;3.15;2.70;;;;;;;19.32;66.87;99305.19;1723576;82;21085;-69
2022/08/01 04:38:01;;;;;;;6.08;3.42;;;;;;;19.36;66.70;99310.25;1726190;82;21021;-73
2022/08/01 04:40:28;;;;;;;4.95;3.50;;;;;;;19.39;66.44;99310.97;1724002;83;21027;-71
2022/08/01 04:42:55;;;;;;;6.58;3.52;;;;;;;19.43;66.40;99303.75;1722303;83;22281;-72
2022/08/01 04:45:22;;;;;;;4.10;3.70;;;;;;;19.47;66.14;99308.84;1731404;82;21249;-72
2022/08/01 04:47:49;;;;;;;6.65;3.40;;;;;;;19.47;66.01;99304.75;1730574;82;20949;-71
2022/08/01 04:50:17;;;;;;;8.85;4.03;;;;;;;19.50;65.99;99307.41;1704446;81;21196;-72
2022/08/01 04:52:44;;;;;;;6.58;3.37;;;;;;;19.49;65.99;99303.88;1731046;82;20993;-71
2022/08/01 04:55:10;;;;;;;6.80;3.75;;;;;;;19.50;66.00;99313.67;1731220;82;20997;-73
2022/08/01 04:57:43;;;;;;;4.28;3.77;;;;;;;19.52;65.96;99314.14;1691354;82;21163;-72
2022/08/01 05:00:11;;;;;;;7.90;3.95;;;;;;;19.55;65.89;99316.81;1705713;82;21044;-71
2022/08/01 05:02:38;;;;;;;8.53;3.33;;;;;;;19.57;65.64;99314.00;1697212;84;21072;-73
2022/08/01 05:05:05;;;;;;;5.58;3.10;;;;;;;19.55;65.62;99312.16;1706629;81;21482;-72
2022/08/01 05:07:36;;;;;;;3.65;3.35;;;;;;;19.57;65.55;99311.27;1731304;82;21056;-71
2022/08/01 05:10:05;;;;;;;9.08;4.37;;;;;;;19.57;65.53;99307.18;1730116;81;21572;-72
2022/08/01 05:12:32;;;;;;;4.40;3.98;;;;;;;19.62;65.55;99310.31;1682964;83;20940;-73
2022/08/01 05:14:59;;;;;;;4.20;3.35;;;;;;;19.65;65.49;99301.51;1713966;82;21057;-72
2022/08/01 05:17:26;;;;;;;6.17;3.85;;;;;;;19.65;65.49;99305.60;1713392;82;21074;-73
2022/08/01 05:19:53;;;;;;;6.08;3.55;;;;;;;19.65;65.58;99304.23;1714160;82;21584;-72
2022/08/01 05:22:22;;;;;;;5.87;3.37;;;;;;;19.70;65.54;99301.92;1713956;82;21141;-72
2022/08/01 05:24:48;;;;;;;6.35;3.83;;;;;;;19.75;65.55;99296.30;1713589;83;21474;-70
2022/08/01 05:27:15;;;;;;;5.47;3.40;;;;;;;19.81;65.20;99302.63;1714209;83;21098;-72
2022/08/01 05:29:42;;;;;;;5.05;3.12;;;;;;;19.87;65.38;99299.19;1714328;82;21130;-72
2022/08/01 05:32:10;;;;;;;8.28;4.53;;;;;;;19.93;65.20;99302.81;1722377;81;20944;-71
2022/08/01 05:34:37;;;;;;;5.37;4.15;;;;;;;20.05;64.80;99302.74;1731629;82;21107;-70
2022/08/01 05:37:03;;;;;;;7.90;5.05;;;;;;;20.15;64.59;99305.93;1730908;82;21052;-75
2022/08/01 05:39:30;;;;;;;11.48;3.60;;;;;;;20.23;64.37;99296.14;1659331;84;21035;-71
2022/08/01 05:41:59;;;;;;;5.62;3.35;;;;;;;20.34;64.11;99298.79;1681502;84;21568;-71
2022/08/01 05:44:26;;;;;;;3.02;2.60;;;;;;;20.44;63.92;99292.99;1700048;82;21025;-72
2022/08/01 05:46:53;;;;;;;3.77;3.40;;;;;;;20.53;63.47;99306.06;1730900;81;21774;-72
2022/08/01 05:49:20;;;;;;;5.60;4.67;;;;;;;20.62;63.25;99304.70;1731156;82;21042;-71
2022/08/01 05:51:46;;;;;;;4.00;3.45;;;;;;;20.71;63.19;99312.31;1730013;82;20961;-72
2022/08/01 05:54:13;;;;;;;8.60;3.33;;;;;;;20.80;62.74;99315.27;1730749;82;20968;-70
2022/08/01 05:56:43;;;;;;;14.43;12.90;;;;;;;20.89;62.37;99308.39;1731067;82;21033;-73
2022/08/01 05:59:10;;;;;;;8.13;4.70;;;;;;;20.98;62.22;99302.88;1710991;82;21129;-72
2022/08/01 06:01:37;;;;;;;9.60;3.50;;;;;;;21.06;61.47;99304.77;1706512;83;20957;-71
2022/08/01 06:04:06;;;;;;;5.87;3.00;;;;;;;21.22;61.17;99303.94;1689474;82;21044;-72
2022/08/01 06:06:33;;;;;;;7.47;3.83;;;;;;;21.22;61.17;99303.94;1681602;85;21074;-72
2022/08/01 06:09:00;;;;;;;5.55;3.12;;;;;;;21.31;60.93;99300.59;1714594;81;21163;-73
2022/08/01 06:11:26;;;;;;;6.10;3.87;;;;;;;21.41;60.47;99302.14;1731204;82;21910;-72
2022/08/01 06:13:53;;;;;;;5.47;3.37;;;;;;;21.48;60.38;99295.59;1729851;81;21075;-71
2022/08/01 06:16:20;;;;;;;8.73;3.62;;;;;;;21.58;60.30;99291.67;1723389;83;21130;-72
2022/08/01 06:18:46;;;;;;;4.05;2.90;;;;;;;21.68;59.73;99289.88;1695134;82;20971;-71
2022/08/01 06:21:13;;;;;;;6.17;2.95;;;;;;;21.78;59.37;99284.58;1692200;81;21123;-73
2022/08/01 06:23:42;;;;;;;9.63;2.80;;;;;;;21.87;58.74;99280.64;1680604;84;21351;-75
2022/08/01 06:26:09;;;;;;;6.67;3.05;;;;;;;21.99;58.51;99288.97;1679204;84;21525;-72
2022/08/01 06:28:36;;;;;;;3.70;2.90;;;;;;;22.07;57.72;99288.08;1680442;83;21016;-72
2022/08/01 06:31:02;;;;;;;3.52;2.47;;;;;;;22.16;56.96;99287.44;1669568;84;21539;-72
2022/08/01 06:33:29;;;;;;;6.25;2.95;;;;;;;22.25;56.38;99277.79;1652776;85;21087;-71
2022/08/01 06:35:56;;;;;;;3.47;2.65;;;;;;;22.32;56.10;99281.33;1630328;86;21127;-73
2022/08/01 06:38:24;;;;;;;7.87;3.45;;;;;;;22.38;55.92;99273.94;1653722;86;21107;-72
2022/08/01 06:40:50;;;;;;;6.17;2.60;;;;;;;22.45;55.91;99278.28;1631287;85;20991;-72
2022/08/01 06:43:18;;;;;;;9.85;2.98;;;;;;;22.55;55.71;99275.69;1681399;85;21583;-72
2022/08/01 06:45:45;;;;;;;7.45;3.02;;;;;;;22.64;55.04;99281.09;1679610;84;21087;-72
2022/08/01 06:48:11;;;;;;;5.87;2.87;;;;;;;22.71;54.22;99272.56;1664396;84;21927;-72
2022/08/01 06:50:38;;;;;;;4.15;2.45;;;;;;;22.78;53.75;99262.42;1736522;82;20902;-73
2022/08/01 06:53:05;;;;;;;6.83;2.65;;;;;;;22.86;53.50;99265.61;1722615;81;20980;-72
2022/08/01 06:55:32;;;;;;;4.00;2.52;;;;;;;22.93;53.22;99261.72;1723485;83;21111;-71
2022/08/01 06:57:59;;;;;;;4.50;2.40;;;;;;;22.97;53.20;99259.32;1723460;82;21069;-72
2022/08/01 07:00:28;;;;;;;5.60;3.05;;;;;;;23.04;53.10;99263.68;1723340;81;21329;-70
2022/08/01 07:02:56;;;;;;;3.08;2.55;;;;;;;23.11;53.36;99254.09;1716680;82;21019;-71
2022/08/01 07:05:23;;;;;;;10.90;3.05;;;;;;;23.19;53.19;99262.20;1723047;82;20993;-71
2022/08/01 07:07:51;;;;;;;23.27;4.30;;;;;;;23.26;52.90;99265.14;1723388;83;21041;-72
2022/08/01 07:10:18;;;;;;;5.10;4.28;;;;;;;23.33;52.76;99262.64;1723699;83;21069;-73
2022/08/01 07:12:44;;;;;;;4.33;3.12;;;;;;;23.39;52.32;99257.16;1723595;83;21105;-70
2022/08/01 07:15:11;;;;;;;7.10;2.92;;;;;;;23.47;52.46;99265.05;1709852;82;21131;-71
2022/08/01 07:17:41;;;;;;;4.72;3.15;;;;;;;23.54;52.40;99265.28;1675088;84;21059;-71
2022/08/01 07:20:09;;;;;;;6.37;2.42;;;;;;;23.62;51.97;99267.09;1697162;83;21040;-73
2022/08/01 07:22:37;;;;;;;8.05;3.10;;;;;;;23.68;51.90;99271.20;1675053;83;21050;-71
2022/08/01 07:25:05;;;;;;;4.90;2.85;;;;;;;23.73;51.74;99272.33;1674644;85;22494;-72
2022/08/01 07:27:32;;;;;;;7.53;3.42;;;;;;;23.78;51.18;99270.72;1653745;85;21011;-74
2022/08/01 07:29:59;;;;;;;8.58;3.83;;;;;;;23.81;51.00;99272.77;1700812;81;21065;-72
2022/08/01 07:32:26;;;;;;;3.50;2.77;;;;;;;23.84;51.24;99265.19;1723949;83;21001;-70
2022/08/01 07:34:53;;;;;;;3.40;2.58;;;;;;;23.89;51.16;99273.76;1723981;83;21037;-71
2022/08/01 07:37:20;;;;;;;4.75;2.77;;;;;;;23.93;51.37;99267.82;1722561;81;21156;-71
2022/08/01 07:39:47;;;;;;;10.32;2.70;;;;;;;23.97;51.44;99261.05;1697193;83;21075;-72
2022/08/01 07:42:13;;;;;;;3.65;2.50;;;;;;;24.03;51.57;99259.66;1675287;84;21020;-72
2022/08/01 07:44:40;;;;;;;8.53;3.58;;;;;;;24.07;51.88;99263.30;1678831;83;21084;-74
2022/08/01 07:47:08;;;;;;;13.08;3.47;;;;;;;24.04;51.79;99258.48;1727108;82;20997;-71
2022/08/01 07:49:35;;;;;;;12.82;3.27;;;;;;;24.04;51.94;99263.98;1723614;82;21532;-72
2022/08/01 07:52:03;;;;;;;5.78;2.72;;;;;;;24.03;51.96;99265.15;1722792;81;20930;-73
2022/08/01 07:54:32;;;;;;;5.22;2.70;;;;;;;24.08;52.07;99264.88;1697117;83;21134;-73
2022/08/01 07:56:58;;;;;;;7.80;3.52;;;;;;;24.14;52.05;99257.41;1674865;85;21028;-75
2022/08/01 07:59:25;;;;;;;3.80;2.40;;;;;;;24.24;52.08;99259.69;1694879;81;21056;-72
2022/08/01 08:01:54;;;;;;;8.90;2.62;;;;;;;24.33;51.83;99267.77;1725911;82;21460;-73
2022/08/01 08:04:21;;;;;;;4.92;3.17;;;;;;;24.40;51.93;99258.94;1733752;82;21158;-74
2022/08/01 08:06:48;;;;;;;4.87;3.08;;;;;;;24.48;52.05;99264.84;1723070;83;20968;-74
2022/08/01 08:09:16;;;;;;;4.20;3.12;;;;;;;24.58;51.85;99259.63;1722314;82;21108;-71
2022/08/01 08:11:46;;;;;;;5.08;3.83;;;;;;;24.67;51.90;99251.20;1713167;82;21038;-70
2022/08/01 08:14:15;;;;;;;8.28;3.05;;;;;;;24.74;51.48;99255.52;1723584;83;22053;-74
2022/08/01 08:16:43;;;;;;;10.30;2.85;;;;;;;24.84;51.72;99254.19;1723492;81;21092;-74
2022/08/01 08:19:12;;;;;;;11.10;2.92;;;;;;;24.92;50.96;99251.86;1678338;84;21036;-73
2022/08/01 08:21:39;;;;;;;7.75;2.98;;;;;;;24.93;51.25;99257.02;1679179;84;20913;-71
2022/08/01 08:24:20;;;;;;;5.72;3.40;;;;;;;24.97;51.05;99251.02;1679167;84;20977;-73
2022/08/01 08:26:50;;;;;;;9.50;3.67;;;;;;;25.02;51.25;99247.20;1679020;84;21161;-73
2022/08/01 08:29:16;;;;;;;3.65;3.00;;;;;;;25.08;51.74;99244.41;1670780;85;21105;-71
2022/08/01 08:31:43;;;;;;;7.10;3.02;;;;;;;25.13;51.47;99236.64;1670397;84;21001;-72
2022/08/01 08:34:12;;;;;;;5.22;3.10;;;;;;;25.18;51.58;99225.94;1716346;83;21033;-72
2022/08/01 08:36:42;;;;;;;4.55;3.67;;;;;;;25.27;51.69;99239.53;1723153;82;20980;-73
2022/08/01 08:39:09;;;;;;;7.47;3.40;;;;;;;25.34;51.30;99238.30;1723281;83;21167;-72
2022/08/01 08:41:36;;;;;;;7.10;3.42;;;;;;;25.39;51.23;99239.41;1723486;83;21608;-74
2022/08/01 08:44:07;;;;;;;4.42;3.60;;;;;;;25.45;51.09;99231.89;1719718;81;21134;-73
2022/08/01 08:46:34;;;;;;;6.62;2.98;;;;;;;25.49;51.22;99227.25;1732223;82;21056;-72
2022/08/01 08:49:03;;;;;;;8.80;3.42;;;;;;;25.59;51.32;99228.09;1710987;82;21149;-74
2022/08/01 08:51:31;;;;;;;3.22;2.92;;;;;;;25.68;51.24;99230.64;1729237;81;22050;-72
2022/08/01 08:53:59;;;;;;;4.28;3.70;;;;;;;25.78;51.08;99232.02;1712711;82;21072;-74
2022/08/01 08:56:29;;;;;;;12.75;3.60;;;;;;;25.73;51.30;99232.30;1699591;82;21075;-73
2022/08/01 08:58:56;;;;;;;5.40;3.17;;;;;;;25.78;51.90;99239.70;1703043;81;21084;-71
2022/08/01 09:01:23;;;;;;;7.47;3.50;;;;;;;25.88;51.31;99228.69;1741005;81;21044;-75
2022/08/01 09:03:49;;;;;;;7.15;3.65;;;;;;;25.94;51.33;99230.00;1691166;81;21134;-73
2022/08/01 09:06:18;;;;;;;3.52;3.22;;;;;;;26.00;51.11;99231.28;1681492;84;21000;-73
2022/08/01 09:08:45;;;;;;;5.15;3.98;;;;;;;26.04;51.29;99234.33;1707518;81;21239;-73
2022/08/01 09:11:11;;;;;;;3.47;3.17;;;;;;;26.15;51.37;99228.23;1721745;81;21106;-72
2022/08/01 09:13:38;;;;;;;5.83;3.20;;;;;;;26.24;51.27;99228.24;1711524;81;21020;-74
2022/08/01 09:16:05;;;;;;;10.00;3.47;;;;;;;26.36;51.29;99226.72;1730849;81;21839;-72
2022/08/01 09:18:40;;;;;;;6.05;3.33;;;;;;;26.52;51.10;99235.47;1724593;81;21068;-69
2022/08/01 09:21:10;;;;;;;4.42;3.80;;;;;;;26.63;51.15;99237.81;1730648;81;21146;-71
2022/08/01 09:23:45;;;;;;;5.53;3.22;;;;;;;26.70;50.69;99233.23;1730925;82;20981;-70
2022/08/01 09:26:21;;;;;;;13.65;3.80;;;;;;;26.77;50.63;99233.91;1727495;82;21042;-71
2022/08/01 09:28:48;;;;;;;5.85;3.05;;;;;;;26.82;50.88;99231.65;1650302;84;21761;-70
2022/08/01 09:31:18;;;;;;;5.30;3.45;;;;;;;26.89;50.54;99229.05;1717715;81;21057;-70
2022/08/01 09:33:54;;;;;;;6.65;3.90;;;;;;;26.90;50.37;99235.38;1706878;81;21115;-70
2022/08/01 09:36:27;;;;;;;3.85;3.50;;;;;;;26.90;51.00;99232.61;1640298;86;21063;-68
2022/08/01 09:38:54;;;;;;;6.42;3.60;;;;;;;26.98;50.57;99237.06;1640430;84;20988;-70
2022/08/01 09:41:31;;;;;;;6.70;4.83;;;;;;;26.96;50.72;99239.97;1681644;85;21222;-72
2022/08/01 09:43:59;;;;;;;8.00;3.87;;;;;;;27.00;50.62;99236.70;1663599;84;20949;-70
2022/08/01 09:46:26;;;;;;;4.17;3.77;;;;;;;27.02;50.21;99232.97;1649427;85;21515;-71
2022/08/01 09:49:01;;;;;;;11.30;4.50;;;;;;;27.11;50.25;99245.94;1670692;84;21074;-70
2022/08/01 09:51:36;;;;;;;4.87;4.28;;;;;;;27.18;50.06;99237.20;1670301;84;24032;-71
2022/08/01 09:54:04;;;;;;;7.22;4.30;;;;;;;27.29;49.93;99238.13;1684094;82;21216;-71
2022/08/01 09:56:45;;;;;;;8.43;5.12;;;;;;;27.37;49.99;99239.05;1729151;81;21042;-71
2022/08/01 09:59:12;;;;;;;9.43;3.37;;;;;;;27.50;49.25;99235.50;1730428;81;21049;-71
2022/08/01 10:01:49;;;;;;;6.05;4.25;;;;;;;27.59;48.87;99238.20;1696635;83;21088;-72
2022/08/01 10:04:20;;;;;;;9.05;4.53;;;;;;;27.70;49.31;99234.20;1728764;81;21081;-72
2022/08/01 10:06:52;;;;;;;10.08;4.15;;;;;;;27.82;49.32;99231.80;1721748;81;21264;-70
2022/08/01 10:09:30;;;;;;;7.70;4.65;;;;;;;27.97;49.05;99226.63;1743617;81;21493;-70
2022/08/01 10:11:58;;;;;;;11.12;4.92;;;;;;;28.15;48.58;99231.83;1730470;81;21525;-69
2022/08/01 10:14:26;;;;;;;4.87;4.37;;;;;;;28.27;48.65;99229.37;1728100;81;21509;-69
2022/08/01 10:16:53;;;;;;;8.40;4.25;;;;;;;28.39;48.71;99231.88;1711956;81;21035;-71
2022/08/01 10:19:23;;;;;;;3.90;3.60;;;;;;;28.47;48.18;99222.47;1740201;81;40757;-71
2022/08/01 10:21:53;;;;;;;9.20;4.00;;;;;;;28.51;47.79;99222.70;1734958;81;21030;-71
2022/08/01 10:24:21;;;;;;;11.60;4.87;;;;;;;28.52;47.85;99226.27;1742677;81;22335;-69
2022/08/01 10:26:54;;;;;;;5.17;4.65;;;;;;;28.54;47.67;99231.63;1760033;81;20986;-70
2022/08/01 10:29:21;;;;;;;5.65;5.03;;;;;;;28.53;47.73;99233.41;1693013;81;21020;-71
2022/08/01 10:31:48;;;;;;;6.85;4.75;;;;;;;28.50;48.06;99228.61;1703144;81;21159;-70
2022/08/01 10:34:19;;;;;;;5.58;5.05;;;;;;;28.45;48.18;99225.61;1699136;82;21047;-70
2022/08/01 10:36:47;;;;;;;5.20;4.70;;;;;;;28.34;48.71;99230.84;1694639;81;21107;-75
2022/08/01 10:39:18;;;;;;;6.55;5.80;;;;;;;28.18;49.21;99231.86;1705722;81;21011;-72
2022/08/01 10:41:44;;;;;;;14.83;5.72;;;;;;;28.13;49.45;99227.25;1643978;83;21046;-72
2022/08/01 10:44:11;;;;;;;10.90;5.55;;;;;;;28.12;49.85;99228.41;1654818;85;21232;-71
2022/08/01 10:46:39;;;;;;;4.95;4.53;;;;;;;28.11;49.75;99234.53;1649910;84;21067;-71
2022/08/01 10:49:12;;;;;;;10.60;5.72;;;;;;;28.17;49.48;99234.41;1715498;81;20965;-73
2022/08/01 10:51:39;;;;;;;12.80;6.20;;;;;;;28.18;49.38;99229.09;1690963;83;21605;-73
2022/08/01 10:54:06;;;;;;;6.58;5.87;;;;;;;28.19;49.73;99229.89;1671893;84;21066;-73
2022/08/01 10:56:47;;;;;;;8.73;4.78;;;;;;;28.19;49.98;99221.59;1732401;81;22117;-71
2022/08/01 10:59:26;;;;;;;9.13;5.17;;;;;;;28.04;50.15;99224.75;1730816;82;21048;-70
2022/08/01 11:02:01;;;;;;;4.62;4.22;;;;;;;28.01;50.54;99226.11;1718948;81;21051;-72
2022/08/01 11:04:57;;;;;;;8.80;5.37;;;;;;;28.05;49.98;99217.27;1719139;82;21066;-75
2022/08/01 11:07:37;;;;;;;16.27;4.65;;;;;;;28.05;50.32;99222.20;1714919;81;21701;-68
2022/08/01 11:10:21;;;;;;;5.67;5.20;;;;;;;28.18;50.31;99211.12;1708515;82;21021;-68
2022/08/01 11:12:47;;;;;;;12.30;5.12;;;;;;;28.34;49.49;99218.39;1721755;81;20957;-68
2022/08/01 11:15:24;;;;;;;6.10;4.95;;;;;;;28.45;49.54;99220.07;1698042;81;21092;-68
2022/08/01 11:17:47;;;;;;;6.10;4.10;;;;;;;28.54;49.07;99216.98;1677368;83;21041;-71
2022/08/01 11:20:30;;;;;;;7.47;4.65;;;;;;;28.58;48.98;99216.45;1688855;81;21532;-68
2022/08/01 11:23:04;;;;;;;6.77;4.63;;;;;;;28.66;49.03;99209.00;1675687;81;21852;-69
2022/08/01 11:25:46;;;;;;;18.60;5.37;;;;;;;28.79;48.62;99213.09;1716800;81;21796;-71
2022/08/01 11:28:21;;;;;;;6.10;4.08;;;;;;;28.92;47.85;99212.41;1707533;84;21065;-72
2022/08/01 11:30:51;;;;;;;4.72;4.33;;;;;;;28.97;47.21;99214.81;1703676;83;21078;-70
2022/08/01 11:33:21;;;;;;;6.25;5.55;;;;;;;29.06;47.19;99215.89;1706917;82;21041;-70
2022/08/01 11:36:15;;;;;;;8.05;4.78;;;;;;;29.09;46.03;99219.27;1728141;82;21781;-70
2022/08/01 11:38:59;;;;;;;5.72;4.50;;;;;;;29.13;45.22;99215.92;1732525;82;21083;-68
2022/08/01 11:41:29;;;;;;;7.67;5.42;;;;;;;29.12;45.69;99223.23;1723603;82;21032;-68
2022/08/01 11:44:10;;;;;;;7.60;4.58;;;;;;;29.14;45.89;99214.75;1723633;83;21009;-69